Time;durP1;ratioP1;P1;durP2;ratioP2;P2;SDS_P1;SDS_P2;PMS_P1;PMS_P2;Temp;Humidity;BMP_temperature;BMP_pressure;BME280_temperature;BME280_humidity;BME280_pressure;Samples;Min_cycle;Max_cycle;Signal;HPM_P1;HPM_P2
2021/09/20 00:00:18;;;;;;;3.45;2.65;;;;;;;12.85;62.82;100953.06;4905632;28;97852;-60
2021/09/20 00:02:45;;;;;;;7.78;3.03;;;;;;;12.85;62.90;100944.97;4922275;28;98606;-62
2021/09/20 00:05:11;;;;;;;4.55;2.97;;;;;;;12.84;62.81;100944.16;4922087;28;127509;-60
2021/09/20 00:07:38;;;;;;;4.40;2.97;;;;;;;12.84;62.83;100937.94;4904243;28;105398;-62
2021/09/20 00:10:09;;;;;;;7.18;2.80;;;;;;;12.81;63.03;100939.31;4921246;28;98310;-62
2021/09/20 00:12:35;;;;;;;4.72;2.80;;;;;;;12.80;62.90;100940.38;4903739;28;111426;-60
2021/09/20 00:15:01;;;;;;;4.18;3.08;;;;;;;12.78;63.10;100945.25;4919694;28;119276;-62
2021/09/20 00:17:27;;;;;;;4.65;2.80;;;;;;;12.79;63.29;100944.16;4922008;28;118459;-60
2021/09/20 00:19:53;;;;;;;4.22;2.88;;;;;;;12.77;63.21;100940.91;4922671;28;117818;-60
2021/09/20 00:22:19;;;;;;;4.03;2.55;;;;;;;12.76;63.03;100939.28;4920886;28;126886;-62
2021/09/20 00:24:45;;;;;;;4.47;2.75;;;;;;;12.77;63.01;100932.78;4921678;28;127989;-62
2021/09/20 00:27:12;;;;;;;5.50;2.67;;;;;;;12.75;63.20;100938.47;4920690;28;127145;-62
2021/09/20 00:29:38;;;;;;;3.70;2.42;;;;;;;12.74;63.04;100938.75;4920089;28;97953;-62
2021/09/20 00:32:05;;;;;;;4.82;2.50;;;;;;;12.74;63.00;100938.75;4921588;28;126021;-60
2021/09/20 00:34:31;;;;;;;5.47;2.78;;;;;;;12.73;63.14;100942.53;4922180;28;98791;-62
2021/09/20 00:36:57;;;;;;;3.25;2.50;;;;;;;12.72;63.21;100944.41;4921005;28;128036;-60
2021/09/20 00:39:23;;;;;;;3.20;2.17;;;;;;;12.71;63.27;100936.59;4921337;28;117182;-62
2021/09/20 00:41:49;;;;;;;3.70;2.47;;;;;;;12.72;63.15;100941.72;4920066;28;127386;-62
2021/09/20 00:44:15;;;;;;;5.13;2.70;;;;;;;12.76;63.33;100936.56;4921988;28;109387;-62
2021/09/20 00:46:42;;;;;;;3.95;2.47;;;;;;;12.83;62.91;100941.72;4920111;28;127347;-60
2021/09/20 00:49:08;;;;;;;4.22;2.47;;;;;;;12.88;62.75;100933.59;4922308;28;108959;-60
2021/09/20 00:51:34;;;;;;;4.28;2.63;;;;;;;12.91;62.65;100936.59;4920798;28;126882;-60
2021/09/20 00:54:00;;;;;;;4.20;2.65;;;;;;;12.96;62.88;100941.97;4921601;28;126127;-60
2021/09/20 00:56:26;;;;;;;6.60;2.75;;;;;;;12.99;62.80;100929.81;4919002;28;126619;-62
2021/09/20 00:58:53;;;;;;;4.65;2.58;;;;;;;13.02;62.85;100937.41;4919472;28;116485;-61
2021/09/20 01:01:19;;;;;;;3.75;2.70;;;;;;;13.03;62.71;100928.19;4921851;28;98631;-61
2021/09/20 01:03:45;;;;;;;3.75;2.80;;;;;;;13.05;62.76;100933.31;4921834;28;97984;-60
2021/09/20 01:06:11;;;;;;;3.83;2.55;;;;;;;13.05;62.80;100936.84;4920019;28;127796;-60
2021/09/20 01:08:37;;;;;;;4.32;2.67;;;;;;;13.06;62.60;100934.97;4921128;28;116212;-60
2021/09/20 01:11:03;;;;;;;4.75;2.60;;;;;;;13.05;63.01;100931.44;4919734;28;128564;-61
2021/09/20 01:13:29;;;;;;;4.72;2.72;;;;;;;13.05;62.68;100933.31;4920431;28;120417;-61
2021/09/20 01:15:55;;;;;;;3.38;2.47;;;;;;;13.05;62.75;100933.31;4920865;28;103875;-63
2021/09/20 01:18:21;;;;;;;4.32;2.55;;;;;;;13.04;62.77;100937.91;4920852;28;97750;-60
2021/09/20 01:20:47;;;;;;;5.20;2.90;;;;;;;13.05;62.83;100930.59;4921038;28;127734;-60
2021/09/20 01:23:13;;;;;;;6.18;2.35;;;;;;;13.03;62.67;100928.19;4921196;28;117122;-60
2021/09/20 01:25:42;;;;;;;4.20;2.70;;;;;;;13.03;62.76;100936.31;4919268;28;104045;-61
2021/09/20 01:28:08;;;;;;;4.80;2.42;;;;;;;13.01;62.96;100936.59;4919624;28;97998;-60
2021/09/20 01:30:34;;;;;;;5.78;2.30;;;;;;;12.99;63.03;100938.75;4921285;28;126714;-62
2021/09/20 01:33:00;;;;;;;3.58;2.38;;;;;;;12.99;63.05;100935.22;4920717;28;112548;-60
2021/09/20 01:35:26;;;;;;;3.35;2.50;;;;;;;12.98;62.97;100939.81;4919534;28;98494;-61
2021/09/20 01:37:53;;;;;;;5.93;2.20;;;;;;;12.96;63.23;100944.69;4921511;28;98094;-60
2021/09/20 01:40:19;;;;;;;3.65;2.70;;;;;;;12.95;63.25;100944.97;4921992;28;98347;-62
2021/09/20 01:42:45;;;;;;;3.72;2.50;;;;;;;12.94;63.15;100938.75;4919075;28;98443;-60
2021/09/20 01:45:12;;;;;;;4.53;2.47;;;;;;;12.92;63.06;100946.31;4915100;28;98073;-62
2021/09/20 01:47:38;;;;;;;4.38;2.15;;;;;;;12.90;63.56;100944.97;4921357;28;105013;-60
2021/09/20 01:50:05;;;;;;;4.10;2.67;;;;;;;12.90;63.28;100943.09;4919635;28;99988;-61
2021/09/20 01:52:31;;;;;;;5.43;2.40;;;;;;;12.89;63.22;100940.63;4919627;28;99328;-60
2021/09/20 01:54:57;;;;;;;3.45;2.25;;;;;;;12.87;63.62;100945.50;4922964;28;127579;-62
2021/09/20 01:57:23;;;;;;;2.97;2.22;;;;;;;12.85;63.59;100934.13;4924461;28;97850;-62
2021/09/20 01:59:51;;;;;;;4.28;2.58;;;;;;;12.83;63.29;100944.44;4924367;28;98843;-60
2021/09/20 02:02:17;;;;;;;3.55;2.28;;;;;;;12.82;63.55;100942.81;4924219;28;98001;-61
2021/09/20 02:04:43;;;;;;;4.13;2.33;;;;;;;12.81;63.46;100946.59;4922637;28;125239;-62
2021/09/20 02:07:09;;;;;;;3.40;2.40;;;;;;;12.80;63.47;100942.25;4923281;28;97982;-60
2021/09/20 02:09:35;;;;;;;4.47;2.22;;;;;;;12.80;63.73;100950.38;4923001;28;127288;-62
2021/09/20 02:12:01;;;;;;;2.83;2.40;;;;;;;12.78;63.59;100951.47;4923868;28;126489;-60
2021/09/20 02:14:27;;;;;;;3.88;2.45;;;;;;;12.78;63.51;100945.25;4923683;28;114362;-62
2021/09/20 02:16:53;;;;;;;3.88;2.50;;;;;;;12.77;63.35;100949.84;4923522;28;118743;-60
2021/09/20 02:19:20;;;;;;;3.85;2.28;;;;;;;12.76;63.27;100947.41;4924161;28;99126;-61
2021/09/20 02:21:46;;;;;;;4.03;2.40;;;;;;;12.74;63.50;100953.09;4923445;28;127942;-60
2021/09/20 02:24:12;;;;;;;3.58;2.40;;;;;;;12.71;63.31;100948.22;4922726;28;127738;-60
2021/09/20 02:26:38;;;;;;;3.55;2.47;;;;;;;12.70;63.42;100952.00;4923246;28;118020;-62
2021/09/20 02:29:04;;;;;;;3.60;2.35;;;;;;;12.67;63.45;100947.13;4922709;28;126838;-60
2021/09/20 02:31:30;;;;;;;4.07;2.47;;;;;;;12.65;63.48;100957.41;4923800;28;104040;-62
2021/09/20 02:33:57;;;;;;;4.40;2.40;;;;;;;12.63;63.42;100954.16;4922813;28;126536;-61
2021/09/20 02:36:23;;;;;;;5.75;2.55;;;;;;;12.62;63.78;100952.53;4922398;28;103191;-60
2021/09/20 02:38:49;;;;;;;4.03;2.58;;;;;;;12.59;63.81;100953.06;4922556;28;124839;-60
2021/09/20 02:41:15;;;;;;;3.45;2.67;;;;;;;12.57;63.64;100951.72;4923198;28;113402;-60
2021/09/20 02:43:42;;;;;;;4.20;2.42;;;;;;;12.57;63.43;100947.09;4922660;28;111551;-62
2021/09/20 02:46:08;;;;;;;4.55;2.65;;;;;;;12.56;63.77;100950.91;4924020;28;116684;-62
2021/09/20 02:48:34;;;;;;;4.18;2.20;;;;;;;12.53;63.84;100957.66;4922451;28;128038;-60
2021/09/20 02:51:00;;;;;;;4.15;2.25;;;;;;;12.50;63.70;100962.81;4920776;28;126328;-62
2021/09/20 02:53:26;;;;;;;4.15;2.40;;;;;;;12.48;63.65;100965.75;4922996;28;106974;-60
2021/09/20 02:55:52;;;;;;;2.75;2.15;;;;;;;12.45;63.80;100965.47;4908707;28;118919;-61
2021/09/20 02:58:18;;;;;;;4.38;2.65;;;;;;;12.43;63.97;100962.25;4920632;28;128100;-62
2021/09/20 03:00:44;;;;;;;5.10;2.33;;;;;;;12.41;63.99;100964.38;4920031;28;128077;-60
2021/09/20 03:03:10;;;;;;;3.78;2.45;;;;;;;12.39;64.10;100967.38;4921371;28;127168;-62
2021/09/20 03:05:37;;;;;;;3.72;2.35;;;;;;;12.37;63.93;100964.09;4921947;28;98039;-60
2021/09/20 03:08:04;;;;;;;3.30;2.30;;;;;;;12.38;64.03;100968.47;4921547;28;98018;-62
2021/09/20 03:10:30;;;;;;;3.90;2.25;;;;;;;12.36;63.92;100965.19;4889657;28;116611;-61
2021/09/20 03:12:56;;;;;;;4.88;2.28;;;;;;;12.34;64.09;100970.06;4920536;28;114753;-63
2021/09/20 03:15:22;;;;;;;3.83;2.22;;;;;;;12.34;64.04;100966.53;4922737;28;117163;-60
2021/09/20 03:17:51;;;;;;;4.38;2.13;;;;;;;12.32;64.17;100972.22;4921603;28;124022;-61
2021/09/20 03:20:17;;;;;;;3.80;2.22;;;;;;;12.32;64.40;100966.00;4908983;28;98889;-60
2021/09/20 03:22:43;;;;;;;4.18;2.45;;;;;;;12.31;64.40;100961.69;4903712;28;98155;-61
2021/09/20 03:25:10;;;;;;;5.00;2.53;;;;;;;12.31;64.36;100976.00;4921857;28;118710;-60
2021/09/20 03:27:36;;;;;;;5.30;2.40;;;;;;;12.30;64.27;100971.69;4923119;28;98249;-62
2021/09/20 03:30:04;;;;;;;3.67;2.67;;;;;;;12.31;64.39;100969.78;4922535;28;98951;-60
2021/09/20 03:32:30;;;;;;;4.53;2.22;;;;;;;12.29;64.42;100976.25;4921915;28;98835;-62
2021/09/20 03:34:56;;;;;;;4.80;2.60;;;;;;;12.30;64.63;100982.50;4922547;28;118454;-60
2021/09/20 03:37:22;;;;;;;3.38;2.53;;;;;;;12.29;64.19;100980.84;4919734;28;125870;-62
2021/09/20 03:39:48;;;;;;;3.58;2.50;;;;;;;12.27;64.26;100977.63;4921582;28;128726;-62
2021/09/20 03:42:14;;;;;;;3.20;2.47;;;;;;;12.28;64.09;100981.94;4904470;28;108078;-60
2021/09/20 03:44:40;;;;;;;3.75;2.75;;;;;;;12.28;64.05;100980.03;4904868;28;98019;-60
2021/09/20 03:47:06;;;;;;;3.70;2.05;;;;;;;12.26;64.32;100979.50;4923002;28;98458;-62
2021/09/20 03:49:33;;;;;;;5.57;2.08;;;;;;;12.26;64.47;100978.69;4922982;28;117248;-60
2021/09/20 03:51:59;;;;;;;5.30;2.33;;;;;;;12.26;64.49;100987.63;4923559;28;98524;-60
2021/09/20 03:54:25;;;;;;;3.20;2.20;;;;;;;12.26;64.26;100986.78;4922222;28;117232;-60
2021/09/20 03:56:51;;;;;;;4.15;2.13;;;;;;;12.24;64.74;100984.34;4904159;28;99626;-62
2021/09/20 03:59:17;;;;;;;3.97;2.30;;;;;;;12.23;64.73;100990.03;4920364;28;128018;-60
2021/09/20 04:01:43;;;;;;;3.67;2.30;;;;;;;12.23;64.28;100995.44;4920577;28;127398;-60
2021/09/20 04:04:09;;;;;;;4.38;2.20;;;;;;;12.22;64.48;100997.34;4921007;28;118855;-60
2021/09/20 04:06:35;;;;;;;4.20;2.22;;;;;;;12.19;64.47;100997.88;4920393;28;127730;-62
2021/09/20 04:09:02;;;;;;;4.68;2.55;;;;;;;12.20;64.38;100995.97;4903725;28;126282;-62
2021/09/20 04:11:29;;;;;;;4.30;2.92;;;;;;;12.17;64.37;100999.19;4904211;28;97883;-60
2021/09/20 04:13:55;;;;;;;3.63;2.53;;;;;;;12.15;64.26;100994.06;4920227;28;98347;-62
2021/09/20 04:16:21;;;;;;;5.60;2.85;;;;;;;12.13;64.12;101004.31;4921505;28;98011;-61
2021/09/20 04:18:47;;;;;;;4.95;3.38;;;;;;;12.09;64.30;101000.53;4921660;28;115597;-60
2021/09/20 04:21:14;;;;;;;3.75;2.78;;;;;;;12.06;64.60;101005.63;4922442;28;105923;-62
2021/09/20 04:23:40;;;;;;;5.03;2.78;;;;;;;12.04;64.47;101005.91;4922758;28;97823;-62
2021/09/20 04:26:06;;;;;;;4.43;2.40;;;;;;;12.00;64.18;101005.63;4903090;28;127933;-61
2021/09/20 04:28:32;;;;;;;4.47;2.55;;;;;;;11.98;64.51;101012.34;4919311;28;128134;-60
2021/09/20 04:30:58;;;;;;;5.50;2.78;;;;;;;11.96;64.87;101006.41;4919775;28;127232;-62
2021/09/20 04:33:24;;;;;;;3.00;2.53;;;;;;;11.93;64.90;101013.16;4903208;28;119078;-60
2021/09/20 04:35:50;;;;;;;3.65;2.22;;;;;;;11.94;64.75;101008.56;4921554;28;127947;-60
2021/09/20 04:38:17;;;;;;;5.53;2.65;;;;;;;11.93;64.85;101013.16;4918682;28;127358;-60
2021/09/20 04:40:43;;;;;;;4.60;3.47;;;;;;;11.91;65.07;101020.72;4920205;28;97997;-60
2021/09/20 04:43:10;;;;;;;19.95;14.05;;;;;;;11.89;65.13;101019.34;4920230;28;117774;-62
2021/09/20 04:45:37;;;;;;;47.97;27.63;;;;;;;11.87;65.01;101024.19;4921892;28;98186;-60
2021/09/20 04:48:06;;;;;;;39.47;22.27;;;;;;;11.85;65.33;101029.84;4921627;28;111742;-64
2021/09/20 04:50:32;;;;;;;18.98;14.23;;;;;;;11.86;65.21;101038.78;4922076;28;97963;-60
2021/09/20 04:52:58;;;;;;;11.05;8.63;;;;;;;11.85;65.13;101037.97;4918679;28;116130;-61
2021/09/20 04:55:25;;;;;;;9.07;6.00;;;;;;;11.83;65.17;101041.97;4917430;28;128808;-60
2021/09/20 04:57:51;;;;;;;6.32;3.80;;;;;;;11.82;64.96;101045.75;4917330;28;114520;-62
2021/09/20 05:00:17;;;;;;;5.43;2.97;;;;;;;11.82;64.98;101043.03;4919111;28;97926;-62
2021/09/20 05:02:43;;;;;;;4.18;2.60;;;;;;;11.81;65.63;101047.63;4918051;28;107730;-60
2021/09/20 05:05:10;;;;;;;4.15;2.40;;;;;;;11.80;65.21;101054.94;4917826;28;99453;-63
2021/09/20 05:07:37;;;;;;;4.22;2.38;;;;;;;11.83;64.96;101052.75;4916948;28;98544;-62
2021/09/20 05:10:03;;;;;;;5.15;2.35;;;;;;;11.83;65.12;101059.03;4919253;28;98153;-60
2021/09/20 05:12:29;;;;;;;4.32;2.50;;;;;;;11.82;64.94;101049.25;4917883;28;102341;-60
2021/09/20 05:14:55;;;;;;;3.85;2.33;;;;;;;11.80;64.78;101049.53;4917879;28;127202;-60
2021/09/20 05:17:21;;;;;;;5.18;2.58;;;;;;;11.79;64.83;101063.31;4918434;28;109059;-62
2021/09/20 05:19:47;;;;;;;4.00;2.47;;;;;;;11.77;65.07;101063.53;4918884;28;127668;-62
2021/09/20 05:22:13;;;;;;;4.80;2.58;;;;;;;11.77;65.85;101058.13;4902653;28;118754;-60
2021/09/20 05:24:39;;;;;;;4.78;2.95;;;;;;;11.77;65.09;101063.53;4919145;28;126876;-60
2021/09/20 05:27:05;;;;;;;4.72;2.67;;;;;;;11.79;65.29;101058.72;4920468;28;126810;-60
2021/09/20 05:29:31;;;;;;;6.15;3.40;;;;;;;11.82;65.41;101067.34;4920978;28;127670;-61
2021/09/20 05:31:57;;;;;;;5.00;3.42;;;;;;;11.82;65.84;101062.75;4921859;28;98353;-60
2021/09/20 05:34:26;;;;;;;4.80;3.58;;;;;;;11.84;65.31;101063.34;4921485;28;109033;-62
2021/09/20 05:36:52;;;;;;;4.93;3.50;;;;;;;11.85;65.05;101073.06;4920813;28;98841;-60
2021/09/20 05:39:18;;;;;;;4.40;3.10;;;;;;;11.88;65.20;101069.06;4919849;28;126585;-60
2021/09/20 05:41:44;;;;;;;3.63;2.80;;;;;;;11.88;65.22;101075.25;4918470;28;118025;-60
2021/09/20 05:44:10;;;;;;;3.65;2.70;;;;;;;11.89;65.37;101071.47;4919984;28;127913;-62
2021/09/20 05:46:36;;;;;;;4.68;2.55;;;;;;;11.90;65.72;101075.00;4919291;28;128886;-62
2021/09/20 05:49:02;;;;;;;3.67;2.63;;;;;;;11.90;65.46;101078.50;4921067;28;98812;-61
2021/09/20 05:51:28;;;;;;;3.20;2.60;;;;;;;11.92;65.46;101083.66;4908894;28;118376;-62
2021/09/20 05:53:54;;;;;;;3.60;2.42;;;;;;;11.90;65.44;101075.00;4901120;28;128232;-62
2021/09/20 05:56:20;;;;;;;4.35;2.40;;;;;;;11.89;65.32;101089.56;4919411;28;128355;-62
2021/09/20 05:58:46;;;;;;;4.43;2.50;;;;;;;11.88;65.21;101086.06;4920388;28;127819;-62
2021/09/20 06:01:12;;;;;;;3.97;2.63;;;;;;;11.87;65.40;101087.16;4920560;28;118236;-62
2021/09/20 06:03:38;;;;;;;4.90;2.58;;;;;;;11.88;65.38;101082.56;4920185;28;128347;-62
2021/09/20 06:06:04;;;;;;;5.35;2.60;;;;;;;11.89;65.42;101084.19;4919130;28;98511;-60
2021/09/20 06:08:30;;;;;;;4.22;2.67;;;;;;;11.96;65.34;101099.09;4901144;28;127204;-60
2021/09/20 06:10:56;;;;;;;6.57;2.70;;;;;;;12.05;65.77;101088.59;4918825;28;118092;-60
2021/09/20 06:13:22;;;;;;;4.25;2.40;;;;;;;12.15;65.04;101093.25;4918389;28;98616;-62
2021/09/20 06:15:50;;;;;;;3.95;2.25;;;;;;;12.24;65.36;101086.25;4919732;28;128863;-62
2021/09/20 06:18:16;;;;;;;5.35;2.38;;;;;;;12.32;64.96;101093.88;4920031;28;97976;-60
2021/09/20 06:20:42;;;;;;;4.68;2.58;;;;;;;12.38;64.46;101095.53;4920762;28;118390;-61
2021/09/20 06:23:08;;;;;;;2.95;2.10;;;;;;;12.44;64.86;101097.16;4920223;28;127925;-62
2021/09/20 06:25:34;;;;;;;6.18;2.60;;;;;;;12.51;64.54;101091.50;4918994;28;127306;-61
2021/09/20 06:28:00;;;;;;;5.10;2.72;;;;;;;12.56;64.36;101099.63;4919667;28;127271;-62
2021/09/20 06:30:26;;;;;;;7.72;3.50;;;;;;;12.60;64.62;101094.50;4921423;28;97861;-60
2021/09/20 06:32:52;;;;;;;11.23;3.70;;;;;;;12.61;64.36;101098.84;4919839;28;98385;-60
2021/09/20 06:35:18;;;;;;;8.23;4.00;;;;;;;12.66;64.31;101094.28;4920070;28;128203;-61
2021/09/20 06:37:44;;;;;;;6.43;3.72;;;;;;;12.70;64.11;101098.06;4902239;28;97941;-60
2021/09/20 06:40:11;;;;;;;5.22;2.92;;;;;;;12.72;64.02;101104.00;4902439;28;104821;-60
2021/09/20 06:42:37;;;;;;;5.45;3.30;;;;;;;12.74;64.06;101101.06;4902963;28;98548;-60
2021/09/20 06:45:04;;;;;;;6.13;2.55;;;;;;;12.77;64.12;101100.50;4923925;28;98823;-60
2021/09/20 06:47:31;;;;;;;5.50;2.97;;;;;;;12.80;63.94;101101.88;4922235;28;99635;-60
2021/09/20 06:49:57;;;;;;;6.55;3.90;;;;;;;12.82;64.18;101097.84;4923494;28;118076;-62
2021/09/20 06:52:23;;;;;;;4.57;3.20;;;;;;;12.86;63.83;101101.63;4922694;28;118025;-60
2021/09/20 06:54:49;;;;;;;4.05;2.97;;;;;;;12.86;64.11;101104.34;4922234;28;127428;-60
2021/09/20 06:57:15;;;;;;;6.40;3.05;;;;;;;12.84;63.89;101103.78;4921900;28;126781;-62
2021/09/20 06:59:41;;;;;;;5.45;3.15;;;;;;;12.87;63.79;101105.94;4923084;28;108735;-62
2021/09/20 07:02:07;;;;;;;7.07;3.42;;;;;;;12.89;63.84;101106.50;4921687;28;127777;-62
2021/09/20 07:04:33;;;;;;;6.00;3.83;;;;;;;12.93;63.82;101113.00;4923271;28;126645;-60
2021/09/20 07:06:59;;;;;;;7.70;4.15;;;;;;;12.96;63.86;101109.75;4922677;28;127150;-60
2021/09/20 07:09:25;;;;;;;5.57;3.80;;;;;;;12.99;63.75;101109.22;4922523;28;97957;-62
2021/09/20 07:11:51;;;;;;;7.15;4.25;;;;;;;13.01;63.27;101117.09;4922220;28;128077;-61
2021/09/20 07:14:17;;;;;;;8.40;4.40;;;;;;;13.02;63.43;101124.94;4923258;28;113512;-61
2021/09/20 07:16:43;;;;;;;8.02;4.40;;;;;;;13.04;63.48;101121.94;4922864;28;98855;-60
2021/09/20 07:19:09;;;;;;;6.53;3.55;;;;;;;13.06;63.44;101122.50;4923704;28;98851;-62
2021/09/20 07:21:35;;;;;;;7.05;3.97;;;;;;;13.08;63.53;101125.75;4922037;28;128652;-62
2021/09/20 07:24:01;;;;;;;5.45;3.42;;;;;;;13.09;63.19;101130.09;4920527;28;127143;-63
2021/09/20 07:26:29;;;;;;;6.43;3.70;;;;;;;13.11;63.19;101125.22;4871949;28;111051;-60
2021/09/20 07:28:56;;;;;;;5.30;3.70;;;;;;;13.11;63.45;101127.09;4923683;28;97722;-62
2021/09/20 07:31:22;;;;;;;5.07;3.15;;;;;;;13.13;63.44;101131.19;4921881;28;99015;-61
2021/09/20 07:33:48;;;;;;;5.53;3.10;;;;;;;13.16;63.12;101138.75;4921442;28;98811;-62
2021/09/20 07:36:15;;;;;;;5.72;3.20;;;;;;;13.19;63.28;101138.22;4923176;28;97776;-62
2021/09/20 07:38:42;;;;;;;6.13;2.50;;;;;;;13.23;63.36;101125.00;4923525;28;97790;-60
2021/09/20 07:41:08;;;;;;;5.05;3.53;;;;;;;13.26;63.33;101136.09;4922786;28;99313;-62
2021/09/20 07:43:34;;;;;;;5.95;3.20;;;;;;;13.34;62.69;101134.75;4921680;28;118866;-62
2021/09/20 07:46:00;;;;;;;5.22;3.03;;;;;;;13.38;62.74;101145.84;4921154;28;127280;-60
2021/09/20 07:48:27;;;;;;;4.18;2.70;;;;;;;13.42;62.77;101152.34;4904444;28;103244;-60
2021/09/20 07:50:53;;;;;;;4.88;3.13;;;;;;;13.46;62.81;101148.84;4888317;28;98536;-60
2021/09/20 07:53:19;;;;;;;5.82;3.50;;;;;;;13.52;62.61;101152.38;4921074;28;98638;-60
2021/09/20 07:55:47;;;;;;;5.82;3.20;;;;;;;13.57;62.58;101156.97;4904723;28;97881;-61
2021/09/20 07:58:13;;;;;;;4.18;3.22;;;;;;;13.59;62.25;101155.59;4921148;28;99546;-60
2021/09/20 08:00:40;;;;;;;6.93;4.82;;;;;;;13.61;62.37;101155.34;4922599;28;98283;-60
2021/09/20 08:03:09;;;;;;;4.80;3.25;;;;;;;13.62;62.14;101162.38;4920554;28;99205;-60
2021/09/20 08:05:36;;;;;;;5.00;3.63;;;;;;;13.62;62.36;101167.81;4905683;28;97901;-62
2021/09/20 08:08:02;;;;;;;7.03;4.80;;;;;;;13.64;62.18;101166.47;4904416;28;97842;-61
2021/09/20 08:10:28;;;;;;;7.38;5.32;;;;;;;13.65;62.37;101161.84;4921919;28;114199;-62
2021/09/20 08:12:55;;;;;;;6.55;4.57;;;;;;;13.69;62.26;101166.47;4921131;28;97889;-62
2021/09/20 08:15:21;;;;;;;6.20;3.83;;;;;;;13.73;61.86;101172.97;4922910;28;114370;-60
2021/09/20 08:17:48;;;;;;;5.65;3.22;;;;;;;13.74;61.92;101173.75;4903703;28;116378;-61
2021/09/20 08:20:14;;;;;;;5.85;3.22;;;;;;;13.78;61.89;101171.31;4918932;28;128159;-60
2021/09/20 08:22:40;;;;;;;5.95;3.47;;;;;;;13.81;61.55;101173.50;4921483;28;121920;-62
2021/09/20 08:25:08;;;;;;;4.65;3.50;;;;;;;13.86;61.58;101176.19;4920525;28;98478;-62
2021/09/20 08:27:34;;;;;;;6.97;3.65;;;;;;;13.89;61.15;101176.47;4920430;28;97955;-61
2021/09/20 08:30:01;;;;;;;6.65;3.60;;;;;;;13.96;61.34;101179.72;4922937;28;98346;-60
2021/09/20 08:32:27;;;;;;;5.15;3.58;;;;;;;14.02;61.06;101171.56;4922065;28;98393;-61
2021/09/20 08:34:53;;;;;;;5.93;3.72;;;;;;;14.07;61.01;101177.81;4920453;28;98334;-62
2021/09/20 08:37:19;;;;;;;6.50;3.50;;;;;;;14.12;60.69;101180.50;4921582;28;97747;-62
2021/09/20 08:39:48;;;;;;;6.88;4.13;;;;;;;14.16;60.70;101180.78;4922457;28;98858;-60
2021/09/20 08:42:15;;;;;;;5.80;3.42;;;;;;;14.19;60.66;101191.09;4922029;28;98246;-62
2021/09/20 08:44:42;;;;;;;4.95;3.45;;;;;;;14.21;60.49;101180.75;4922018;28;98018;-62
2021/09/20 08:47:08;;;;;;;6.97;3.55;;;;;;;14.25;60.84;101192.69;4922412;28;97987;-60
2021/09/20 08:49:34;;;;;;;4.60;3.60;;;;;;;14.27;60.51;101187.00;4919682;28;115759;-60
2021/09/20 08:52:00;;;;;;;5.13;3.35;;;;;;;14.32;60.51;101185.09;4903621;28;106965;-63
2021/09/20 08:54:26;;;;;;;4.55;3.13;;;;;;;14.34;60.12;101182.91;4921311;28;125253;-61
2021/09/20 08:56:53;;;;;;;4.32;3.70;;;;;;;14.36;60.24;101186.16;4920507;28;98163;-62
2021/09/20 08:59:19;;;;;;;4.85;3.15;;;;;;;14.38;60.46;101183.16;4921945;28;105103;-62
2021/09/20 09:01:50;;;;;;;4.78;3.35;;;;;;;14.38;60.26;101189.41;4920756;28;128031;-61
2021/09/20 09:04:36;;;;;;;5.85;3.65;;;;;;;14.44;60.56;101195.63;4904113;28;98177;-61
2021/09/20 09:07:17;;;;;;;6.00;3.58;;;;;;;14.47;60.33;101195.91;4903411;28;98169;-62
2021/09/20 09:09:46;;;;;;;6.03;4.20;;;;;;;14.48;59.78;101189.38;4921849;28;99501;-61
2021/09/20 09:12:18;;;;;;;4.97;3.85;;;;;;;14.51;59.45;101198.09;4920852;28;116011;-62
2021/09/20 09:14:53;;;;;;;6.23;3.80;;;;;;;14.56;59.91;101198.06;4921654;28;98393;-62
2021/09/20 09:17:26;;;;;;;5.57;4.15;;;;;;;14.62;59.94;101199.66;4921268;28;104501;-62
2021/09/20 09:20:09;;;;;;;5.90;4.15;;;;;;;14.68;60.14;101204.81;4921450;28;97979;-60
2021/09/20 09:22:53;;;;;;;5.85;4.13;;;;;;;14.72;59.72;101202.34;4921834;28;98999;-62
2021/09/20 09:25:20;;;;;;;6.60;4.22;;;;;;;14.78;59.06;101201.25;4921885;28;98044;-62
2021/09/20 09:27:48;;;;;;;6.10;3.80;;;;;;;14.83;59.30;101208.56;4922392;28;98251;-62
2021/09/20 09:30:22;;;;;;;4.88;3.90;;;;;;;14.88;59.27;101203.91;4921597;28;98677;-62
2021/09/20 09:32:49;;;;;;;6.97;4.30;;;;;;;14.93;58.96;101203.06;4921387;28;99169;-62
2021/09/20 09:35:16;;;;;;;5.82;4.15;;;;;;;14.99;58.61;101204.69;4903113;28;98772;-62
2021/09/20 09:37:45;;;;;;;5.80;4.28;;;;;;;15.05;58.35;101209.00;4920895;28;97908;-60
2021/09/20 09:40:22;;;;;;;7.13;3.72;;;;;;;15.11;59.00;101204.34;4919533;28;98296;-61
2021/09/20 09:42:51;;;;;;;7.10;4.10;;;;;;;15.20;58.09;101203.47;4919516;28;99961;-61
2021/09/20 09:45:32;;;;;;;6.47;4.20;;;;;;;15.28;58.58;101202.06;4921401;28;97707;-61
2021/09/20 09:48:19;;;;;;;6.82;4.70;;;;;;;15.36;58.28;101200.66;4922439;28;98014;-63
2021/09/20 09:51:01;;;;;;;6.05;5.28;;;;;;;15.39;58.14;101208.25;4921657;28;98525;-61
2021/09/20 09:53:35;;;;;;;7.78;5.43;;;;;;;15.41;57.73;101206.09;4921173;28;98764;-62
2021/09/20 09:56:15;;;;;;;7.32;5.65;;;;;;;15.42;57.70;101202.28;4920598;28;97953;-61
2021/09/20 09:59:02;;;;;;;6.20;4.85;;;;;;;15.47;57.43;101210.38;4920091;28;97855;-60
2021/09/20 10:01:40;;;;;;;6.10;4.35;;;;;;;15.48;57.44;101217.44;4920706;28;98980;-61
2021/09/20 10:04:23;;;;;;;8.55;5.25;;;;;;;15.51;57.64;101213.34;4920699;28;111219;-62
2021/09/20 10:06:54;;;;;;;7.00;4.82;;;;;;;15.53;56.94;101214.69;4920894;28;98601;-61
2021/09/20 10:09:28;;;;;;;8.35;5.10;;;;;;;15.56;56.86;101218.75;4920211;28;97825;-62
2021/09/20 10:11:57;;;;;;;6.32;4.57;;;;;;;15.58;56.76;101217.38;4920223;28;100032;-61
2021/09/20 10:14:24;;;;;;;5.93;4.55;;;;;;;15.63;57.17;101219.22;4922176;28;98517;-61
2021/09/20 10:16:57;;;;;;;6.32;4.95;;;;;;;15.65;56.97;101212.47;4923520;28;99189;-62
2021/09/20 10:19:23;;;;;;;6.45;4.82;;;;;;;15.74;56.48;101214.56;4924972;28;97714;-62
2021/09/20 10:21:50;;;;;;;6.28;4.72;;;;;;;15.77;56.59;101205.88;4923513;28;128601;-61
2021/09/20 10:24:16;;;;;;;6.38;5.30;;;;;;;15.84;56.63;101203.63;4923805;28;98322;-62
2021/09/20 10:26:42;;;;;;;6.35;5.30;;;;;;;15.86;56.45;101207.66;4921763;28;97955;-60
2021/09/20 10:29:10;;;;;;;6.70;5.25;;;;;;;15.88;56.25;101205.50;4924859;28;108063;-60
2021/09/20 10:31:36;;;;;;;6.53;4.70;;;;;;;15.91;55.51;101204.09;4905847;28;118157;-60
2021/09/20 10:34:18;;;;;;;5.03;4.53;;;;;;;15.94;56.22;101203.53;4906332;28;102633;-62
2021/09/20 10:36:52;;;;;;;7.00;5.03;;;;;;;15.94;55.90;101203.53;4923839;28;97994;-61
2021/09/20 10:39:38;;;;;;;7.32;4.22;;;;;;;15.98;55.78;101210.03;4924866;28;97989;-62
2021/09/20 10:42:04;;;;;;;7.07;4.93;;;;;;;16.06;55.86;101211.31;4923129;28;98763;-61
2021/09/20 10:44:38;;;;;;;6.85;5.15;;;;;;;16.08;55.98;101209.13;4922745;28;98705;-61
2021/09/20 10:47:15;;;;;;;6.13;4.57;;;;;;;16.13;55.69;101206.34;4923830;28;98211;-62
2021/09/20 10:49:49;;;;;;;5.53;4.53;;;;;;;16.18;55.83;101206.28;4924472;28;97717;-63
2021/09/20 10:52:15;;;;;;;7.03;4.13;;;;;;;16.23;54.55;101208.16;4922997;28;98798;-64
2021/09/20 10:55:10;;;;;;;6.05;4.03;;;;;;;16.25;54.79;101209.50;4923910;28;112010;-61
2021/09/20 10:57:36;;;;;;;5.65;3.80;;;;;;;16.29;54.94;101212.44;4908938;28;112721;-62
2021/09/20 11:00:22;;;;;;;5.45;4.00;;;;;;;16.34;55.58;101210.47;4923895;28;97897;-62
2021/09/20 11:02:49;;;;;;;6.47;3.85;;;;;;;16.37;54.52;101209.91;4923187;28;98448;-62
2021/09/20 11:05:15;;;;;;;6.60;4.22;;;;;;;16.42;54.62;101215.28;4923528;28;127408;-61
2021/09/20 11:07:49;;;;;;;5.60;3.95;;;;;;;16.48;54.77;101217.97;4924040;28;99283;-61
2021/09/20 11:10:15;;;;;;;5.13;3.85;;;;;;;16.54;54.37;101212.16;4923379;28;110221;-62
2021/09/20 11:13:05;;;;;;;6.63;4.25;;;;;;;16.58;54.69;101213.22;4921891;28;98335;-61
2021/09/20 11:15:42;;;;;;;4.82;3.88;;;;;;;16.62;54.62;101221.63;4923663;28;98465;-61
2021/09/20 11:18:09;;;;;;;5.82;4.07;;;;;;;16.66;53.98;101220.78;4923408;28;97963;-60
2021/09/20 11:20:41;;;;;;;5.88;3.90;;;;;;;16.66;53.89;101212.59;4923657;28;98082;-62